Time;durP1;ratioP1;P1;durP2;ratioP2;P2;SDS_P1;SDS_P2;PMS_P1;PMS_P2;Temp;Humidity;BMP_temperature;BMP_pressure;BME280_temperature;BME280_humidity;BME280_pressure;Samples;Min_cycle;Max_cycle;Signal;HPM_P1;HPM_P2
2022/06/13 00:00:49;;;;;;;18.23;4.50;;;;;;;13.78;96.01;102182.38;5052588;28;20079;-70
2022/06/13 00:03:15;;;;;;;22.05;5.53;;;;;;;13.77;95.99;102183.38;5052817;28;20033;-70
2022/06/13 00:05:40;;;;;;;23.42;5.28;;;;;;;13.77;96.38;102183.38;5052572;28;20075;-70
2022/06/13 00:08:07;;;;;;;21.42;5.40;;;;;;;13.75;96.79;102178.16;5052636;28;20044;-70
2022/06/13 00:10:32;;;;;;;25.20;5.63;;;;;;;13.74;97.40;102171.94;5052319;28;20064;-70
2022/06/13 00:12:57;;;;;;;20.13;4.80;;;;;;;13.75;97.39;102165.63;5052402;28;20474;-71
2022/06/13 00:15:23;;;;;;;19.35;4.70;;;;;;;13.75;97.65;102173.63;5052256;28;20044;-71
2022/06/13 00:17:48;;;;;;;25.80;5.72;;;;;;;13.73;97.84;102175.59;5052436;28;20036;-70
2022/06/13 00:20:13;;;;;;;17.65;4.65;;;;;;;13.71;98.03;102171.34;5050813;28;20122;-70
2022/06/13 00:22:39;;;;;;;34.92;6.15;;;;;;;13.70;97.93;102165.16;5052252;28;20055;-70
2022/06/13 00:25:06;;;;;;;20.58;5.50;;;;;;;13.69;98.51;102168.81;5052086;28;20480;-70
2022/06/13 00:27:31;;;;;;;15.77;4.50;;;;;;;13.70;98.75;102183.00;5052511;28;20029;-71
2022/06/13 00:29:56;;;;;;;17.02;4.53;;;;;;;13.69;98.51;102175.97;5052350;28;20489;-71
2022/06/13 00:32:22;;;;;;;25.23;5.88;;;;;;;13.68;98.53;102182.31;5052137;28;20040;-70
2022/06/13 00:34:48;;;;;;;26.70;5.30;;;;;;;13.68;99.12;102175.13;5052371;28;20060;-71
2022/06/13 00:37:13;;;;;;;26.73;5.00;;;;;;;13.66;99.03;102171.72;5051905;28;20025;-70
2022/06/13 00:39:39;;;;;;;19.63;5.50;;;;;;;13.65;98.84;102170.03;5051964;28;20102;-70
2022/06/13 00:42:05;;;;;;;28.75;5.30;;;;;;;13.66;99.20;102161.03;5050426;28;20511;-70
2022/06/13 00:44:36;;;;;;;25.48;5.75;;;;;;;13.67;99.07;102165.38;5052000;28;20036;-69
2022/06/13 00:47:02;;;;;;;18.00;5.13;;;;;;;13.68;99.14;102175.13;5052172;28;20037;-72
2022/06/13 00:49:54;;;;;;;24.48;5.20;;;;;;;13.70;98.99;102164.28;5051857;28;20514;-71
2022/06/13 00:52:42;;;;;;;27.10;5.40;;;;;;;13.68;99.00;102153.72;5050282;28;20040;-70
2022/06/13 00:55:11;;;;;;;20.20;5.47;;;;;;;13.71;98.80;102163.31;5050427;28;20048;-72
2022/06/13 00:57:37;;;;;;;17.60;4.47;;;;;;;13.72;98.64;102162.34;5051559;28;20373;-72
2022/06/13 01:00:07;;;;;;;24.27;5.63;;;;;;;13.72;98.65;102157.84;5049688;28;20033;-71
2022/06/13 01:02:33;;;;;;;27.20;5.63;;;;;;;13.73;98.77;102158.69;5051543;28;20029;-71
2022/06/13 01:04:59;;;;;;;22.50;5.50;;;;;;;13.74;98.91;102160.41;5051329;28;20033;-71
2022/06/13 01:07:27;;;;;;;24.45;5.32;;;;;;;13.74;98.83;102163.91;5051357;28;20029;-70
2022/06/13 01:12:37;;;;;;;24.38;6.05;;;;;;;13.79;97.63;102165.34;5050683;28;20064;-70
2022/06/13 01:15:11;;;;;;;24.25;5.78;;;;;;;13.82;97.45;102165.09;5051160;28;20144;-72
2022/06/13 01:18:08;;;;;;;25.75;5.90;;;;;;;13.82;96.94;102160.59;5051103;28;20036;-71
2022/06/13 01:20:45;;;;;;;23.17;5.75;;;;;;;13.85;96.59;102172.88;5051366;28;20037;-70
2022/06/13 01:23:34;;;;;;;20.92;5.65;;;;;;;13.86;96.03;102167.38;5049676;28;20032;-72
2022/06/13 01:26:18;;;;;;;36.03;5.65;;;;;;;13.89;95.88;102171.63;5050716;28;20056;-73
2022/06/13 01:29:04;;;;;;;25.08;6.00;;;;;;;13.89;95.65;102164.44;5050945;28;20051;-71
2022/06/13 01:31:41;;;;;;;21.25;5.03;;;;;;;13.88;95.71;102156.56;5049651;28;20144;-71
2022/06/13 01:34:34;;;;;;;20.55;5.32;;;;;;;13.86;96.02;102158.53;5050826;28;20025;-72
2022/06/13 01:37:09;;;;;;;28.20;5.82;;;;;;;13.83;95.86;102158.78;5050806;28;20080;-72
2022/06/13 01:39:53;;;;;;;21.73;5.25;;;;;;;13.77;96.12;102156.63;5050909;28;20468;-71
2022/06/13 01:42:45;;;;;;;22.33;4.70;;;;;;;13.72;96.31;102154.34;5050702;28;20032;-70
2022/06/13 01:45:38;;;;;;;17.92;4.88;;;;;;;13.68;95.74;102163.59;5050760;28;20029;-71
2022/06/13 01:48:27;;;;;;;24.27;5.18;;;;;;;13.65;95.07;102158.50;5050693;28;20029;-71
2022/06/13 01:50:59;;;;;;;21.88;4.75;;;;;;;13.60;94.39;102166.91;5050200;28;20417;-71
2022/06/13 01:53:44;;;;;;;17.98;4.20;;;;;;;13.59;94.24;102173.22;5050338;28;20049;-71
2022/06/13 01:56:12;;;;;;;25.85;5.07;;;;;;;13.58;94.54;102171.50;5049997;28;20052;-70
2022/06/13 01:58:50;;;;;;;17.60;4.53;;;;;;;13.53;94.55;102169.22;5049459;28;20036;-71
2022/06/13 02:01:35;;;;;;;19.60;4.28;;;;;;;13.49;93.98;102172.25;5049944;28;20029;-70
2022/06/13 02:04:17;;;;;;;16.58;4.22;;;;;;;13.41;92.51;102162.19;5049455;28;20441;-71
2022/06/13 02:06:51;;;;;;;16.58;4.57;;;;;;;13.40;91.00;102168.50;5049778;28;20021;-71
2022/06/13 02:09:22;;;;;;;19.45;5.05;;;;;;;13.39;90.23;102169.47;5049530;28;20063;-71
2022/06/13 02:11:51;;;;;;;23.75;4.68;;;;;;;13.39;89.12;102167.69;5049766;28;20039;-71
2022/06/13 02:14:33;;;;;;;13.95;3.40;;;;;;;13.45;87.03;102168.13;5049542;28;20040;-72
2022/06/13 02:17:09;;;;;;;12.77;3.20;;;;;;;13.46;84.26;102164.50;5049659;28;20051;-71
2022/06/13 02:19:45;;;;;;;12.52;3.33;;;;;;;13.51;81.98;102178.31;5049372;28;20468;-71
2022/06/13 02:22:20;;;;;;;11.30;2.90;;;;;;;13.55;80.22;102174.44;5049130;28;20072;-71
2022/06/13 02:24:54;;;;;;;12.07;3.47;;;;;;;13.60;79.81;102176.72;5049345;28;20036;-70
2022/06/13 02:27:23;;;;;;;10.23;3.00;;;;;;;13.63;78.67;102176.47;5049483;28;20025;-71
2022/06/13 02:29:56;;;;;;;6.97;2.55;;;;;;;13.62;77.99;102183.66;5049622;28;20107;-70
2022/06/13 02:32:31;;;;;;;9.80;2.65;;;;;;;13.63;76.81;102179.13;5049231;28;20025;-70
2022/06/13 02:35:15;;;;;;;12.52;2.85;;;;;;;13.67;75.01;102181.44;5049224;28;20052;-71
2022/06/13 02:38:00;;;;;;;8.75;2.53;;;;;;;13.69;74.36;102179.50;5049470;28;20491;-70
2022/06/13 02:40:36;;;;;;;7.95;2.75;;;;;;;13.72;74.77;102173.06;5048478;28;20041;-71
2022/06/13 02:43:09;;;;;;;12.38;2.40;;;;;;;13.73;74.54;102172.94;5047659;28;20032;-71
2022/06/13 02:45:58;;;;;;;9.98;2.92;;;;;;;13.77;73.93;102178.03;5049462;28;20052;-71
2022/06/13 02:48:31;;;;;;;12.77;3.13;;;;;;;13.80;73.57;102177.75;5049378;28;20326;-71
2022/06/13 02:51:25;;;;;;;10.50;2.47;;;;;;;13.81;73.90;102177.63;5049332;28;20135;-70
2022/06/13 02:54:27;;;;;;;8.47;2.70;;;;;;;13.84;73.48;102181.84;5010639;28;1102327;-70
2022/06/13 02:57:25;;;;;;;11.80;2.67;;;;;;;13.83;73.53;102185.53;5049871;28;20279;-70
2022/06/13 03:00:02;;;;;;;10.98;2.35;;;;;;;13.81;73.43;102184.78;5049903;28;20040;-70
2022/06/13 03:02:48;;;;;;;10.85;2.58;;;;;;;13.76;73.13;102177.16;5049959;28;20052;-70
2022/06/13 03:05:32;;;;;;;9.13;2.65;;;;;;;13.76;73.06;102193.19;5049726;28;20063;-71
2022/06/13 03:08:13;;;;;;;7.95;2.75;;;;;;;13.73;73.29;102186.31;5049568;28;20044;-70
2022/06/13 03:10:59;;;;;;;9.02;2.53;;;;;;;13.74;72.49;102195.16;5049804;28;20029;-70
2022/06/13 03:13:36;;;;;;;9.07;2.35;;;;;;;13.72;72.95;102183.75;5049854;28;20028;-70
2022/06/13 03:16:12;;;;;;;6.45;2.10;;;;;;;13.70;72.74;102189.22;5049852;28;20109;-70
2022/06/13 03:18:46;;;;;;;9.77;2.60;;;;;;;13.68;72.61;102193.84;5049629;28;20098;-70
2022/06/13 03:21:17;;;;;;;5.97;2.40;;;;;;;13.66;72.33;102198.47;5049776;28;20029;-71
2022/06/13 03:23:49;;;;;;;12.75;3.20;;;;;;;13.65;72.44;102202.13;5049644;28;20064;-71
2022/06/13 03:26:31;;;;;;;7.97;2.40;;;;;;;13.65;72.49;102199.44;5049795;28;20028;-70
2022/06/13 03:29:04;;;;;;;13.75;2.55;;;;;;;13.64;72.55;102196.91;5049795;28;20048;-71
2022/06/13 03:31:40;;;;;;;11.35;2.72;;;;;;;13.63;73.09;102204.09;5050109;28;20116;-69
2022/06/13 03:34:13;;;;;;;12.85;2.33;;;;;;;13.62;73.11;102199.69;5050606;28;20159;-69
2022/06/13 03:36:46;;;;;;;10.68;2.53;;;;;;;13.60;73.57;102203.47;5053313;28;20060;-72
2022/06/13 03:39:16;;;;;;;11.65;2.75;;;;;;;13.58;74.05;102201.78;5052990;28;20044;-71
2022/06/13 03:41:49;;;;;;;8.45;2.80;;;;;;;13.58;74.07;102208.94;5053164;28;20055;-71
2022/06/13 03:44:17;;;;;;;13.18;2.70;;;;;;;13.56;74.22;102210.91;5053204;28;20033;-71
2022/06/13 03:47:00;;;;;;;10.98;2.17;;;;;;;13.56;74.46;102214.41;5052915;28;20025;-72
2022/06/13 03:49:42;;;;;;;9.60;2.50;;;;;;;13.54;73.77;102210.16;5052756;28;20048;-72
2022/06/13 03:52:11;;;;;;;5.88;2.20;;;;;;;13.54;74.34;102218.19;5053021;28;20029;-72
2022/06/13 03:54:44;;;;;;;7.35;2.17;;;;;;;13.53;73.52;102225.34;5054613;28;20115;-71
2022/06/13 03:57:21;;;;;;;6.38;1.90;;;;;;;13.54;72.91;102228.88;5053076;28;20071;-71
2022/06/13 04:00:10;;;;;;;9.88;2.15;;;;;;;13.54;73.06;102228.88;5052331;28;20116;-69
2022/06/13 04:02:38;;;;;;;9.10;2.13;;;;;;;13.55;72.70;102220.75;5052024;28;20339;-70
2022/06/13 04:05:04;;;;;;;7.82;1.83;;;;;;;13.54;72.34;102221.72;5052666;28;20029;-70
2022/06/13 04:07:35;;;;;;;5.90;2.05;;;;;;;13.56;71.98;102221.59;5051235;28;20037;-72
2022/06/13 04:10:12;;;;;;;9.32;2.10;;;;;;;13.56;72.33;102227.78;5052787;28;20033;-70
2022/06/13 04:13:05;;;;;;;7.40;2.15;;;;;;;13.58;71.94;102219.63;5052996;28;20354;-71
2022/06/13 04:16:15;;;;;;;10.75;2.75;;;;;;;13.57;72.33;102234.84;5052560;28;20440;-71
2022/06/13 04:19:18;;;;;;;8.32;2.03;;;;;;;13.56;71.22;102226.94;5041968;28;20064;-71
2022/06/13 04:21:58;;;;;;;6.65;1.90;;;;;;;13.57;71.45;102228.66;5052391;28;20036;-71
2022/06/13 04:24:41;;;;;;;8.45;2.05;;;;;;;13.57;71.06;102229.50;5052728;28;20028;-74
2022/06/13 04:27:40;;;;;;;6.10;1.92;;;;;;;13.59;71.44;102232.03;5052615;28;20098;-71
2022/06/13 04:30:17;;;;;;;5.70;2.15;;;;;;;13.60;72.00;102236.44;5052136;28;20029;-71
2022/06/13 04:32:51;;;;;;;7.20;2.33;;;;;;;13.63;71.74;102235.31;5051713;28;20029;-70
2022/06/13 04:35:17;;;;;;;5.35;1.85;;;;;;;13.63;72.25;102235.31;5052220;28;20533;-70
2022/06/13 04:37:44;;;;;;;7.40;2.33;;;;;;;13.65;71.97;102241.41;5051895;28;20060;-70
2022/06/13 04:40:17;;;;;;;7.28;1.98;;;;;;;13.64;72.50;102237.84;5051830;28;20087;-70
2022/06/13 04:42:45;;;;;;;7.78;2.10;;;;;;;13.62;73.29;102237.13;5051837;28;20041;-71
2022/06/13 04:45:39;;;;;;;7.38;2.20;;;;;;;13.61;73.97;102240.78;5051534;28;20033;-70
2022/06/13 04:48:05;;;;;;;9.57;2.05;;;;;;;13.61;74.62;102246.13;5049340;28;20547;-71
2022/06/13 04:50:39;;;;;;;11.18;2.13;;;;;;;13.62;75.37;102244.31;5051794;28;20037;-72
2022/06/13 04:53:09;;;;;;;11.10;2.70;;;;;;;13.60;75.39;102246.25;5051624;28;20029;-69
2022/06/13 04:55:44;;;;;;;9.57;1.80;;;;;;;13.57;75.21;102253.56;5051425;28;20053;-70
2022/06/13 04:58:35;;;;;;;10.68;2.50;;;;;;;13.54;75.10;102247.59;5051341;28;20055;-71
2022/06/13 05:01:19;;;;;;;9.48;2.00;;;;;;;13.51;75.38;102251.38;5051685;28;20025;-71
2022/06/13 05:03:47;;;;;;;9.48;2.20;;;;;;;13.58;75.77;102257.94;5051744;28;20111;-71
2022/06/13 05:06:39;;;;;;;7.43;2.28;;;;;;;13.68;76.19;102267.88;5051389;28;20029;-71
2022/06/13 05:09:10;;;;;;;10.27;2.22;;;;;;;13.69;76.28;102265.09;5051684;28;20032;-72
2022/06/13 05:11:41;;;;;;;9.98;2.05;;;;;;;13.68;75.97;102267.88;5051355;28;20090;-71
2022/06/13 05:14:15;;;;;;;12.82;2.45;;;;;;;13.64;76.29;102275.28;5051531;28;20099;-70
2022/06/13 05:16:53;;;;;;;8.18;1.90;;;;;;;13.59;76.34;102277.50;5049989;28;20044;-71
2022/06/13 05:19:47;;;;;;;4.60;1.73;;;;;;;13.56;75.44;102283.09;5051198;28;20117;-71
2022/06/13 05:22:33;;;;;;;11.55;2.00;;;;;;;13.53;76.09;102281.50;5051033;28;20045;-72
2022/06/13 05:25:34;;;;;;;9.18;2.05;;;;;;;13.56;76.01;102293.78;5049637;28;20033;-72
2022/06/13 05:28:00;;;;;;;8.32;1.58;;;;;;;13.61;73.40;102291.59;5041831;28;20069;-71
2022/06/13 05:30:26;;;;;;;8.20;2.03;;;;;;;13.67;73.13;102292.94;5050909;28;20065;-72
2022/06/13 05:32:52;;;;;;;7.55;1.58;;;;;;;13.70;72.67;102303.38;5050639;28;20198;-71
2022/06/13 05:35:35;;;;;;;8.85;1.63;;;;;;;13.70;72.45;102303.38;5050539;28;20447;-72
2022/06/13 05:38:03;;;;;;;5.15;1.67;;;;;;;13.73;72.35;102301.31;5050875;28;20130;-72
2022/06/13 05:40:29;;;;;;;9.75;1.70;;;;;;;13.80;72.62;102303.50;5050914;28;20033;-71
2022/06/13 05:42:54;;;;;;;8.18;1.60;;;;;;;13.88;72.62;102303.69;5050631;28;20527;-71
2022/06/13 05:45:22;;;;;;;9.27;2.10;;;;;;;13.95;72.95;102301.38;5050381;28;20461;-71
2022/06/13 05:47:49;;;;;;;11.55;1.98;;;;;;;14.04;72.92;102306.81;5050545;28;20067;-71
2022/06/13 05:50:18;;;;;;;7.85;1.60;;;;;;;14.13;73.52;102310.56;5050646;28;20029;-71
2022/06/13 05:52:44;;;;;;;12.60;2.50;;;;;;;14.20;74.24;102314.44;5050438;28;20029;-71
2022/06/13 05:55:10;;;;;;;8.68;1.60;;;;;;;14.30;73.52;102319.88;5050459;28;20557;-71
2022/06/13 05:57:38;;;;;;;12.13;2.30;;;;;;;14.30;73.01;102309.16;5050183;28;20116;-74
2022/06/13 06:00:04;;;;;;;9.48;1.90;;;;;;;14.31;73.56;102323.41;5050518;28;20448;-71
2022/06/13 06:02:30;;;;;;;8.55;2.10;;;;;;;14.37;74.35;102317.53;5050260;28;20119;-71
2022/06/13 06:04:55;;;;;;;6.93;1.85;;;;;;;14.36;74.17;102327.41;5050503;28;20075;-71
2022/06/13 06:07:20;;;;;;;13.23;1.80;;;;;;;14.41;74.24;102329.72;5048987;28;20037;-71
2022/06/13 06:09:46;;;;;;;11.18;2.05;;;;;;;14.46;72.11;102332.84;5050043;28;20040;-71
2022/06/13 06:12:11;;;;;;;5.82;1.67;;;;;;;14.50;67.90;102336.13;5050605;28;20056;-71
2022/06/13 06:14:36;;;;;;;6.65;1.40;;;;;;;14.54;67.60;102340.22;5050646;28;20063;-71
2022/06/13 06:17:02;;;;;;;2.70;0.95;;;;;;;14.67;66.94;102340.94;5048645;28;20120;-72
2022/06/13 06:19:27;;;;;;;5.60;1.58;;;;;;;14.84;65.46;102344.00;5050106;28;20044;-71
2022/06/13 06:21:53;;;;;;;6.45;1.45;;;;;;;14.98;65.37;102349.03;5048862;28;20441;-71
2022/06/13 06:24:18;;;;;;;7.60;1.35;;;;;;;15.10;65.98;102353.34;5050195;28;20476;-71
2022/06/13 06:26:44;;;;;;;5.97;1.23;;;;;;;15.11;65.21;102346.19;5050396;28;20033;-72
2022/06/13 06:29:09;;;;;;;5.38;1.30;;;;;;;15.06;63.73;102345.69;5050125;28;20086;-71
2022/06/13 06:31:35;;;;;;;10.27;1.95;;;;;;;15.03;63.07;102354.00;5050333;28;20056;-71
2022/06/13 06:34:00;;;;;;;5.38;1.38;;;;;;;15.18;63.54;102350.00;5049677;28;20093;-71
2022/06/13 06:36:27;;;;;;;5.00;1.15;;;;;;;15.32;63.67;102352.34;5048709;28;20041;-72
2022/06/13 06:38:52;;;;;;;9.00;1.70;;;;;;;15.41;63.15;102352.53;5049835;28;20116;-69
2022/06/13 06:41:18;;;;;;;10.48;2.47;;;;;;;15.48;63.77;102346.50;5050414;28;20357;-70
2022/06/13 06:43:43;;;;;;;5.60;1.33;;;;;;;15.58;64.51;102351.03;5050097;28;20391;-71
2022/06/13 06:46:09;;;;;;;9.10;1.80;;;;;;;15.83;65.01;102357.81;5050018;28;20065;-71
2022/06/13 06:48:36;;;;;;;5.00;1.60;;;;;;;15.71;64.32;102354.34;5049836;28;20082;-71
2022/06/13 06:51:05;;;;;;;6.43;1.70;;;;;;;15.51;64.54;102356.13;5049556;28;20060;-71
2022/06/13 06:59:53;;;;;;;7.13;1.80;;;;;;;15.39;65.70;102360.72;5049622;28;20071;-70
2022/06/13 07:01:43;;;;;;;8.90;2.67;;;;;;;15.98;66.50;102369.00;5050025;28;20048;-69
2022/06/13 07:04:09;;;;;;;9.32;2.00;;;;;;;16.17;64.10;102378.94;5049527;28;20033;-69
2022/06/13 07:06:34;;;;;;;8.10;1.67;;;;;;;16.31;63.45;102377.69;5049618;28;20418;-74
2022/06/13 07:08:59;;;;;;;7.63;1.60;;;;;;;16.29;62.35;102380.50;5050521;28;20033;-74
2022/06/13 07:14:10;;;;;;;8.05;1.92;;;;;;;16.51;62.38;102382.09;5053474;28;20122;-72
2022/06/13 07:16:35;;;;;;;6.20;1.88;;;;;;;16.55;61.32;102379.97;5053951;28;20041;-75
2022/06/13 07:19:00;;;;;;;8.70;2.03;;;;;;;16.35;62.99;102381.78;5053257;28;20037;-75
2022/06/13 07:21:26;;;;;;;8.10;1.83;;;;;;;15.84;63.16;102383.66;5053243;28;20090;-73
2022/06/13 07:23:51;;;;;;;6.47;1.70;;;;;;;15.44;65.03;102392.50;5053497;28;20036;-77
2022/06/13 07:26:17;;;;;;;4.90;1.88;;;;;;;15.30;65.84;102391.00;5052130;28;20043;-73
2022/06/13 07:28:42;;;;;;;8.52;1.80;;;;;;;15.45;65.60;102386.13;5068804;28;20025;-74
2022/06/13 07:31:17;;;;;;;6.35;1.38;;;;;;;15.83;64.83;102393.53;5052207;28;20492;-74
2022/06/13 07:33:43;;;;;;;5.63;1.65;;;;;;;16.14;61.43;102392.66;5053512;28;20108;-75
2022/06/13 07:36:09;;;;;;;7.50;1.58;;;;;;;16.25;61.49;102400.56;5052495;28;20080;-72
2022/06/13 07:38:35;;;;;;;6.35;1.33;;;;;;;16.39;61.76;102402.88;5053476;28;20053;-75
2022/06/13 07:41:01;;;;;;;7.45;1.50;;;;;;;16.66;60.67;102409.41;5052902;28;20059;-73
2022/06/13 07:43:29;;;;;;;7.15;1.60;;;;;;;16.69;60.19;102406.41;5051817;28;20448;-71
2022/06/13 07:45:57;;;;;;;5.10;1.88;;;;;;;16.74;57.92;102409.53;5053393;28;20029;-71
2022/06/13 07:48:23;;;;;;;2.95;1.25;;;;;;;16.64;57.84;102410.50;5053273;28;20033;-71
2022/06/13 07:50:48;;;;;;;6.05;1.45;;;;;;;16.67;58.77;102427.19;5053168;28;20429;-71
2022/06/13 07:53:14;;;;;;;10.68;1.60;;;;;;;16.72;58.34;102421.41;5052596;28;20025;-70
2022/06/13 07:55:40;;;;;;;11.02;1.77;;;;;;;16.87;58.77;102421.88;5052855;28;20069;-70
2022/06/13 07:58:13;;;;;;;6.40;1.55;;;;;;;17.01;58.28;102423.28;5053102;28;20377;-71
2022/06/13 08:00:38;;;;;;;7.72;1.33;;;;;;;17.26;57.16;102421.81;5052854;28;20235;-69
2022/06/13 08:03:05;;;;;;;8.02;1.42;;;;;;;17.61;57.14;102431.91;5052568;28;20120;-70
2022/06/13 08:05:31;;;;;;;6.57;1.77;;;;;;;17.85;55.67;102427.84;5052944;28;20068;-70
2022/06/13 08:07:57;;;;;;;6.47;1.38;;;;;;;17.73;54.15;102445.19;5052292;28;20408;-70
2022/06/13 08:10:23;;;;;;;10.60;1.65;;;;;;;18.03;54.47;102443.25;5052639;28;20033;-71
2022/06/13 08:12:48;;;;;;;4.70;1.52;;;;;;;18.47;53.77;102435.34;5052568;28;20056;-71
2022/06/13 08:15:14;;;;;;;11.25;1.85;;;;;;;18.68;51.46;102438.56;5052298;28;20064;-71
2022/06/13 08:17:40;;;;;;;5.88;1.55;;;;;;;18.20;51.79;102447.84;5052712;28;20067;-70
2022/06/13 08:20:07;;;;;;;6.13;1.65;;;;;;;18.01;53.06;102447.94;5050933;28;20057;-71
2022/06/13 08:22:39;;;;;;;5.40;2.53;;;;;;;18.09;53.89;102453.41;5052398;28;20037;-71
2022/06/13 08:25:05;;;;;;;4.88;1.60;;;;;;;18.32;54.41;102452.03;5052486;28;20049;-70
2022/06/13 08:27:30;;;;;;;5.97;1.58;;;;;;;18.34;53.26;102454.56;5052542;28;20307;-73
2022/06/13 08:29:56;;;;;;;7.55;1.70;;;;;;;18.26;53.86;102460.72;5052554;28;20040;-73
2022/06/13 08:32:21;;;;;;;12.63;1.80;;;;;;;18.01;55.13;102466.81;5052306;28;20025;-74
2022/06/13 08:34:47;;;;;;;6.25;2.03;;;;;;;17.60;55.81;102464.34;5050684;28;20033;-74
2022/06/13 08:37:13;;;;;;;9.25;1.88;;;;;;;17.40;56.95;102463.56;5051891;28;20078;-72
2022/06/13 08:39:38;;;;;;;7.60;2.00;;;;;;;17.44;58.19;102473.88;5052021;28;20032;-71
2022/06/13 08:42:14;;;;;;;8.48;1.45;;;;;;;17.93;56.59;102464.84;5052184;28;20413;-71
2022/06/13 08:44:47;;;;;;;8.65;1.80;;;;;;;17.96;55.40;102470.78;5052065;28;20044;-71
2022/06/13 08:47:39;;;;;;;7.60;1.30;;;;;;;17.65;55.52;102475.53;5051640;28;20040;-71
2022/06/13 08:50:13;;;;;;;8.68;1.48;;;;;;;17.92;55.62;102477.44;5051894;28;20433;-71
2022/06/13 08:52:48;;;;;;;10.52;2.00;;;;;;;19.20;53.79;102470.25;5051684;28;20472;-70
2022/06/13 08:55:31;;;;;;;8.27;1.50;;;;;;;19.83;49.39;102489.09;5051144;28;20053;-69
2022/06/13 08:58:07;;;;;;;6.90;1.80;;;;;;;18.97;52.57;102490.59;5051811;28;20025;-70
2022/06/13 09:00:35;;;;;;;9.38;1.90;;;;;;;18.10;54.18;102492.84;5051882;28;20082;-70
2022/06/13 09:03:20;;;;;;;8.75;1.65;;;;;;;18.52;55.01;102494.19;5051102;28;20079;-72
2022/06/13 09:05:51;;;;;;;5.70;1.60;;;;;;;20.08;49.15;102498.16;5050412;28;20434;-70
2022/06/13 09:08:33;;;;;;;4.70;1.48;;;;;;;20.16;47.61;102513.56;5051425;28;20051;-69
2022/06/13 09:11:09;;;;;;;7.90;2.05;;;;;;;20.18;48.47;102509.69;5051010;28;20115;-69
2022/06/13 09:13:49;;;;;;;8.00;1.67;;;;;;;20.63;46.46;102512.19;5051338;28;20103;-69
2022/06/13 09:16:29;;;;;;;11.83;2.20;;;;;;;19.64;47.88;102509.00;5051098;28;20075;-69
2022/06/13 09:19:12;;;;;;;6.15;1.55;;;;;;;18.76;49.86;102515.16;5051250;28;20021;-69
2022/06/13 09:21:44;;;;;;;9.23;1.80;;;;;;;19.11;50.06;102524.28;5051143;28;20047;-69
2022/06/13 09:24:27;;;;;;;7.82;2.03;;;;;;;21.53;44.86;102520.44;5050930;28;20039;-69
2022/06/13 09:26:59;;;;;;;11.00;2.17;;;;;;;22.17;41.61;102520.44;5051087;28;20029;-68
2022/06/13 09:29:33;;;;;;;7.72;1.90;;;;;;;20.91;44.49;102529.84;5051070;28;20484;-67
2022/06/13 09:32:04;;;;;;;5.72;1.88;;;;;;;21.24;43.13;102524.50;5050567;28;20029;-70
2022/06/13 09:34:44;;;;;;;5.30;1.40;;;;;;;21.88;40.19;102528.31;5050904;28;20480;-69
2022/06/13 09:37:14;;;;;;;7.65;1.40;;;;;;;22.72;39.94;102523.22;5050992;28;20111;-70
2022/06/13 09:39:41;;;;;;;5.18;1.55;;;;;;;23.58;37.22;102523.09;5050535;28;20449;-72
2022/06/13 09:42:27;;;;;;;6.57;1.92;;;;;;;23.29;37.44;102530.16;5050843;28;20113;-73
2022/06/13 09:45:19;;;;;;;4.15;1.40;;;;;;;23.59;36.95;102522.88;5049102;28;20151;-72
2022/06/13 09:48:17;;;;;;;4.20;1.35;;;;;;;24.17;36.47;102529.59;5050730;28;20029;-72
2022/06/13 09:50:52;;;;;;;5.53;1.70;;;;;;;24.62;35.17;102523.06;5041817;28;20048;-72
2022/06/13 09:53:30;;;;;;;10.45;1.75;;;;;;;24.72;35.04;102527.34;5050560;28;20055;-72
2022/06/13 09:56:08;;;;;;;7.57;2.10;;;;;;;22.85;36.40;102534.31;5050674;28;20120;-72
2022/06/13 09:58:52;;;;;;;9.70;1.55;;;;;;;22.07;37.58;102540.63;5050571;28;20318;-70
2022/06/13 10:01:21;;;;;;;7.30;1.58;;;;;;;22.50;36.20;102536.56;5050660;28;20409;-70
2022/06/13 10:04:28;;;;;;;8.70;1.90;;;;;;;23.08;34.32;102538.94;5050099;28;20483;-71
2022/06/13 10:07:03;;;;;;;6.43;1.55;;;;;;;23.49;34.82;102545.91;5050057;28;20127;-71
2022/06/13 10:09:53;;;;;;;6.88;1.70;;;;;;;24.26;34.30;102542.91;5050667;28;20035;-70
2022/06/13 10:12:54;;;;;;;8.55;1.88;;;;;;;24.15;33.63;102543.38;5050406;28;20029;-72
2022/06/13 10:15:49;;;;;;;5.43;1.75;;;;;;;24.16;34.58;102547.78;5037867;28;20068;-72
2022/06/13 10:18:42;;;;;;;8.70;1.60;;;;;;;23.46;34.96;102560.72;5050266;28;20033;-71
2022/06/13 10:21:13;;;;;;;9.98;2.33;;;;;;;23.60;36.00;102553.59;5050346;28;20024;-70
2022/06/13 10:24:11;;;;;;;8.25;2.20;;;;;;;24.32;36.75;102551.31;5050237;28;20104;-70
2022/06/13 10:27:04;;;;;;;7.03;1.92;;;;;;;23.97;34.46;102556.50;5049593;28;20118;-70
2022/06/13 10:29:57;;;;;;;6.47;1.90;;;;;;;23.43;34.51;102544.78;5050238;28;20117;-70
2022/06/13 10:32:47;;;;;;;8.75;1.80;;;;;;;23.49;35.34;102559.50;5050233;28;20041;-69
2022/06/13 10:35:45;;;;;;;7.63;1.65;;;;;;;24.21;34.17;102560.81;5049978;28;20108;-71
2022/06/13 10:38:11;;;;;;;10.07;1.77;;;;;;;24.24;33.14;102558.56;5050270;28;20037;-69
2022/06/13 10:40:36;;;;;;;7.68;1.48;;;;;;;24.10;33.68;102560.25;5050162;28;20094;-69
2022/06/13 10:43:04;;;;;;;6.22;2.15;;;;;;;24.33;33.97;102562.00;5050169;28;20120;-69
2022/06/13 10:45:30;;;;;;;7.60;2.00;;;;;;;23.67;35.19;102562.72;5053302;28;20144;-70
2022/06/13 10:48:13;;;;;;;5.85;1.77;;;;;;;23.34;35.69;102568.44;5054126;28;20475;-69
2022/06/13 10:50:46;;;;;;;5.80;1.60;;;;;;;23.46;35.95;102568.03;5053709;28;20112;-70
2022/06/13 10:53:26;;;;;;;9.15;1.98;;;;;;;23.78;34.51;102564.13;5054051;28;20484;-69
2022/06/13 10:55:55;;;;;;;10.73;2.70;;;;;;;23.91;35.52;102558.09;5053532;28;20053;-69
2022/06/13 10:58:28;;;;;;;10.18;2.05;;;;;;;24.49;34.67;102569.13;5053686;28;20120;-69
2022/06/13 11:01:14;;;;;;;9.57;2.05;;;;;;;25.18;34.30;102562.38;5054144;28;20025;-70
2022/06/13 11:03:58;;;;;;;8.90;2.22;;;;;;;25.38;33.76;102564.44;5053809;28;20111;-71
2022/06/13 11:06:40;;;;;;;9.60;2.40;;;;;;;22.99;36.19;102575.28;5053682;28;20040;-69
2022/06/13 11:09:34;;;;;;;11.48;2.20;;;;;;;22.76;37.37;102569.84;5052529;28;20319;-70
2022/06/13 11:12:04;;;;;;;8.80;2.25;;;;;;;23.33;36.89;102583.03;5052509;28;20461;-69
2022/06/13 11:14:32;;;;;;;8.70;2.25;;;;;;;23.25;37.14;102574.97;5053606;28;20036;-70
2022/06/13 11:22:38;;;;;;;12.30;2.28;;;;;;;22.02;38.43;102592.66;5053260;28;20611;-72
2022/06/13 11:25:17;;;;;;;7.90;2.08;;;;;;;22.12;39.54;102587.03;5053517;28;20032;-69
2022/06/13 11:27:46;;;;;;;12.02;2.45;;;;;;;22.13;38.89;102597.69;5053096;28;20083;-69
2022/06/13 11:30:27;;;;;;;17.90;2.15;;;;;;;22.15;40.23;102592.97;5053238;28;20021;-70
2022/06/13 11:33:04;;;;;;;9.60;2.10;;;;;;;22.51;37.32;102591.66;5053254;28;20512;-69
2022/06/13 11:35:45;;;;;;;8.70;1.90;;;;;;;23.07;37.67;102581.50;5053129;28;20119;-69
2022/06/13 11:38:15;;;;;;;6.00;2.03;;;;;;;23.92;36.03;102576.94;5051741;28;20483;-70
2022/06/13 11:40:42;;;;;;;5.28;1.75;;;;;;;23.88;35.65;102589.19;5052984;28;20079;-70
2022/06/13 11:43:33;;;;;;;9.88;1.98;;;;;;;24.00;35.97;102588.75;5053083;28;20029;-70
2022/06/13 11:46:02;;;;;;;8.85;1.98;;;;;;;22.48;36.83;102602.84;5052789;28;20021;-70
2022/06/13 11:48:29;;;;;;;9.13;1.90;;;;;;;22.29;38.12;102588.66;5052962;28;20091;-70
2022/06/13 11:50:56;;;;;;;9.63;2.30;;;;;;;23.27;38.05;102580.22;5052862;28;20120;-71
2022/06/13 11:53:38;;;;;;;8.13;2.38;;;;;;;23.68;37.05;102588.88;5052957;28;20112;-71
2022/06/13 11:56:11;;;;;;;7.97;1.95;;;;;;;24.18;35.18;102589.22;5052680;28;20469;-71
2022/06/13 11:58:41;;;;;;;8.38;2.05;;;;;;;25.15;32.83;102592.72;5052747;28;20032;-71
2022/06/13 12:01:32;;;;;;;8.05;2.05;;;;;;;24.79;32.48;102588.97;5052746;28;20068;-70
2022/06/13 12:04:02;;;;;;;7.20;2.10;;;;;;;24.80;34.38;102593.41;5051143;28;20132;-70
2022/06/13 12:06:34;;;;;;;12.60;2.28;;;;;;;24.63;33.34;102594.66;5052636;28;20029;-71
2022/06/13 12:09:12;;;;;;;6.65;1.98;;;;;;;24.97;33.14;102601.31;5052721;28;20032;-71
2022/06/13 12:11:44;;;;;;;7.55;2.15;;;;;;;23.97;35.71;102606.28;5052241;28;20029;-71